Ah Gwah Ching, MN

7:33 AM CDT on April 28, 2015 (GMT -0500)
LEECH LAKE TV | | Change Station
CLOSE
Current Station
Personal Weather Station
Location: Walker, MN
Elevation: 1484 ft
Nearby Weather Stations

Elev 1484 ft 47.09 °N, 94.58 °W | Updated 48 seconds ago

Overcast
Overcast
45.7 °F
Feels Like 46 °F
N
0.0
Wind Variable Wind from North
Gusts 6.0 mph

Today
High -- | Low -- °F
--% Chance of Precip.
Yesterday
High -- | Low -- °F
Precip. -- in
6:07 AM 8:24 PM
Waxing Gibbous, 73% visible
Pressure 30.22 in
Visibility 10.0 miles
Clouds Overcast 5500 ft
Windchill 46 °F
Dew Point 45 °F
Humidity 96%
Rainfall 0.05 in
Snow Depth Not available.
UV 0 out of 12
Pollen 9.80 out of 12
Air Quality Not available.
Flu Activity Local Activity
METAR KXVG 281216Z AUTO 31003KT 10SM DZ OVC055 08/07 A3022 RMK AO2

More Conditions Fewer Conditions

Pressure 30.22 in
Visibility 10.0 miles
Clouds Overcast 5500 ft
Windchill 46 °F
Dew Point 45 °F
Humidity 96%
Rainfall 0.05 in
Snow Depth Not available.
UV 0 out of 12
Pollen 9.80 out of 12
Air Quality Not available.
Flu Activity Local Activity
METAR KXVG 281216Z AUTO 31003KT 10SM DZ OVC055 08/07 A3022 RMK AO2

More Conditions Fewer Conditions

10-Day Weather Forecast

Almanac

Astronomy

Apr. 28, 2015 Rise Set
Actual Time
Civil Twilight
Nautical Twilight
Astronomical Twilight
Moon
Length of Visible Light
Length of Day
Tomorrow will be .
, % of the Moon is Illuminated

Today's Extremes

State Highs State Lows

Community

WunderPhotos

Upload Photos

1,817,618 photos uploaded!

WunderBlogs® & News

Nearby

Air Quality

  Air Quality AQ Index Pollutant
Not available.

Snow Depth

Station Depth Elevation

Earthquake Activity

City Distance Mag. Time & Date
Minimum magnitude displayed is 2.5.

Coastal Water Temperatures

Place Temperature

Stations

Nearby Weather Stations

Station Location Temp. Windchill Dew Point Humidity Wind Precip. Elev Updated Type